Observations for MADISON DANE RGNL, WI (MSN)

KMSN 241504Z 09011KT 7SM BKN017 OVC110 M01/M04 A3016 RMK AO2 T10111039
KMSN 241453Z 10009KT 7SM SCT018 BKN110 BKN150 M02/M04 A3016 RMK AO2 SLP225 T10171044 58009  
KMSN 241353Z 10008KT 7SM BKN110 BKN130 M02/M05 A3018 RMK AO2 SLP232 T10221050   
KMSN 241253Z 07008KT 8SM FEW015 BKN110 M03/M05 A3018 RMK AO2 SLP232 T10281050   
KMSN 241153Z 05008KT 7SM SCT130 M04/M06 A3019 RMK AO2 SLP234 70001 T10391056 11017 21044 56018  
KMSN 241053Z AUTO 07006KT 6SM BR CLR M04/M06 A3021 RMK AO2 SLP241 T10391061 
KMSN 241032Z AUTO 05008KT 7SM BKN014 M03/M06 A3021 RMK AO2 T10331056
KMSN 241043Z AUTO 05005KT 7SM SCT014 M04/M06 A3021 RMK AO2 T10391056
KMSN 240953Z AUTO 04007KT 8SM OVC016 M03/M05 A3022 RMK AO2 SLP243 T10281050 
KMSN 240853Z AUTO 02005KT 10SM BKN015 M03/M06 A3025 RMK AO2 SLP252 T10331056 58015  
KMSN 240753Z AUTO 04007KT 10SM OVC017 M02/M05 A3028 RMK AO2 SLP264 T10221050
KMSN 240653Z AUTO 36007KT 10SM OVC016 M02/M04 A3028 RMK AO2 SLP265 T10221044
KMSN 240553Z AUTO 00000KT 9SM BKN018 M02/M04 A3029 RMK AO2 SLP268 T10221044 10011 21028 400331028 51009 
KMSN 240550Z AUTO 00000KT 9SM BKN019 M02/M05 A3029 RMK AO2
KMSN 240453Z 36003KT 10SM CLR M02/M05 A3028 RMK AO2 SLP263 LAST T10221050   
KMSN 240353Z 01004KT 10SM CLR M02/M04 A3026 RMK AO2 SLP259 T10221044
KMSN 240253Z 32005KT 10SM FEW250 M01/M04 A3025 RMK AO2 SLP255 T10111039 51010   
KMSN 240153Z 00000KT 10SM BKN250 00/M03 A3025 RMK AO2 SLP252 T00001033  
KMSN 240053Z 28004KT 10SM BKN250 01/M03 A3024 RMK AO2 SLP249 T00061033  
KMSN 232353Z 28005KT 10SM BKN250 01/M03 A3022 RMK AO2 SLP243 T00111033 10033 20011 51020
KMSN 232253Z VRB06KT 10SM R36/5000VP6000FT SCT025 OVC250 02/M03 A3021 RMK AO2 SLP239 T00221028  
KMSN 232239Z 29006KT 10SM SCT025 OVC250 03/M02 A3021 RMK AO2 T00281022
KMSN 232153Z 29006KT 10SM BKN025 BKN250 03/M02 A3018 RMK AO2 SLP229 T00331017   
KMSN 232053Z 28008KT 10SM BKN021 BKN250 03/M02 A3016 RMK AO2 SLP223 T00331017 53006 
KMSN 231953Z 27008G15KT 10SM OVC022 03/M01 A3016 RMK AO2 SLP221 T00281011 $ 
KMSN 231853Z 27006G14KT 10SM OVC018 03/M01 A3013 RMK AO2 SLP213 T00281006 $ 
KMSN 231753Z 29008G17KT 10SM BKN015 OVC024 03/M01 A3014 RMK AO2 SLP217 60001 T00281006 10028 20017 51020 $  
KMSN 231735Z 26007G15KT 220V290 10SM OVC015 02/00 A3014 RMK AO2 T00220000 $
KMSN 231700Z VRB05G15KT 10SM SCT008 OVC014 02/00 A3014 RMK AO2 T00170000 $
KMSN 231653Z 27008KT 10SM SCT008 OVC015 02/01 A3014 RMK AO2 SLP216 T00170006 $  
KMSN 231553Z 29008G15KT 10SM OVC007 02/01 A3012 RMK AO2 SLP210 T00170006 $  
KMSN 231453Z VRB05G15KT 8SM OVC007 02/01 A3008 RMK AO2 CIG 006V010 SLP196 60001 T00220011 53007 $